KHDO

South Texas Regional at Hondo Airport

Hondo, Texas, USA
METAR KHDO 160051Z AUTO 22003KT 10SM CLR 13/M02 A3022 RMK AO2 SLP231 T01331017
Observed Flight Rules
Dec-16 @ 00:51 UTC (43 minutes ago) Visual Flight Rules
Wind Visibility Clouds
220° at 3 knots 10 miles
  • Clear skies
Temperatures Readings
Current 13°C / 55°F
Dewpoint -2°C / 28°F
Humidity 36%
Altimeter 30.22" Hg
Pressure 1023.1 hPa
Elevation 282
METAR KHDO 160051Z AUTO 22003KT 10SM CLR 13/M02 A3022 RMK AO2 SLP231 T01331017
Observed Flight Rules
Dec-16 @ 00:51 UTC
(43 minutes ago)
VFR
Wind Visibility
220° at 3 knots 10 miles
Clouds
  • Clear skies
Temperature Dewpoint
13°C / 55°F -2°C / 28°F
Humidity Altimeter Pressure
36% 30.22" Hg 1023.1 hPa